M/V Lavelle Devall — WCW4022 — position and weather

sailwx.info

Track history (hours):
 
Tides and Currents Weather Stations Pressure Air Temp Water Temp Dewpoint Dewpoint Depression Visibility Wind Speed Wind Dir Waves Ship Positions

M/V Lavelle Devall

Owner: LAVELLE DEVALL INC, Sulphur, LA. More information available from US FCC via Universal Licensing System and Coast Guard Vessel Documentation Center.

Last reported at 2017-Nov-19 23:42 UTC. Time now 2017-Nov-22 03:53 UTC.
Position N 29°46' W 095°06'.

Length 18 m.

Type: Towing. MMSI: 366972290.

Date/timePositionNaut miles runAvg speedWind from/ knotsBaromVisibWave heightAir tempDewpointWater temp
2017-Nov-19 23:42N 29°46' W 095°06'1 3.1
2017-Nov-19 23:30N 29°46' W 095°05'3 5.4
2017-Nov-19 22:58N 29°44' W 095°08'3 0.2
2017-Nov-19 06:42N 29°45' W 095°11'1 5.7
2017-Nov-19 06:30N 29°45' W 095°10'3 5.3
2017-Nov-19 06:00N 29°44' W 095°07'2 1.0
2017-Nov-19 04:01N 29°46' W 095°05'0 5.4
2017-Nov-19 04:00N 29°46' W 095°05'3 5.3
2017-Nov-19 03:30N 29°44' W 095°03'3 5.3
2017-Nov-19 03:00N 29°42' W 095°01'3 5.1
2017-Nov-19 02:30N 29°41' W 094°58'2 4.4
2017-Nov-19 02:00N 29°41' W 094°56'2 1.8
2017-Nov-19 01:08N 29°42' W 094°56'1 2.4
2017-Nov-19 00:48N 29°43' W 094°57'2 0.2
2017-Nov-18 13:32N 29°45' W 094°56'0 4.6
2017-Nov-18 13:29N 29°45' W 094°56'2 4.0
2017-Nov-18 13:00N 29°43' W 094°57'1 2.5
2017-Nov-18 12:28N 29°42' W 094°56'0 0.9
2017-Nov-18 12:00N 29°42' W 094°55'2 3.0
2017-Nov-18 11:30N 29°41' W 094°56'2 4.1
2017-Nov-18 11:00N 29°41' W 094°58'1 2.8
2017-Nov-18 10:30N 29°42' W 094°60'3 5.0
2017-Nov-18 09:54N 29°44' W 095°02'4 2.4
2017-Nov-18 08:12N 29°46' W 095°06'2 3.9
2017-Nov-18 07:45N 29°44' W 095°07'4 1.6
2017-Nov-18 05:25N 29°45' W 095°11'3 5.8
2017-Nov-18 04:58N 29°44' W 095°08'2 2.0
2017-Nov-18 04:06N 29°45' W 095°06'2 6.2
2017-Nov-18 03:43N 29°44' W 095°09'2 0.6
2017-Nov-18 00:22N 29°45' W 095°11'2 5.9
2017-Nov-18 00:00N 29°44' W 095°09'4 5.6
2017-Nov-17 23:18N 29°46' W 095°05'2 6.2
2017-Nov-17 23:00N 29°44' W 095°03'2 0.1
2017-Nov-17 03:51N 29°43' W 095°01'4 0.6
2017-Nov-16 20:59N 29°46' W 095°05'0 0.0
2017-Nov-16 01:49N 29°46' W 095°06'1 2.5
2017-Nov-16 01:24N 29°45' W 095°06'1 0.2
2017-Nov-15 20:21N 29°44' W 095°07'2 0.4
2017-Nov-15 15:22N 29°46' W 095°05'0 0.0
2017-Nov-15 04:19N 29°46' W 095°05'2 5.6
2017-Nov-15 04:00N 29°45' W 095°04'2 2.7
2017-Nov-15 03:07N 29°44' W 095°02'1 6.5
2017-Nov-15 03:00N 29°44' W 095°02'3 6.6
2017-Nov-15 02:30N 29°46' W 095°05'0 0.0
2017-Nov-14 08:08N 29°46' W 095°05'1 6.3
2017-Nov-14 08:00N 29°46' W 095°04'3 6.1
2017-Nov-14 07:30N 29°44' W 095°02'0 0.0
2017-Nov-14 01:23N 29°44' W 095°01'4 6.0
2017-Nov-14 00:42N 29°46' W 095°05'1 7.1
2017-Nov-14 00:30N 29°44' W 095°07'3 6.6
2017-Nov-13 23:58N 29°45' W 095°11'3 6.5
2017-Nov-13 23:31N 29°44' W 095°14'2 4.4
2017-Nov-13 23:00N 29°43' W 095°16'0 0.3
2017-Nov-13 22:29N 29°43' W 095°16'3 6.0
2017-Nov-13 22:00N 29°44' W 095°13'7 0.3
2017-Nov-12 22:32N 29°46' W 095°05'0 5.1
2017-Nov-12 22:30N 29°46' W 095°05'3 5.8
2017-Nov-12 22:00N 29°44' W 095°03'1 0.9
2017-Nov-12 20:22N 29°43' W 095°01'0 0.1
2017-Nov-12 18:58N 29°44' W 095°01'0 0.0
2017-Nov-12 15:27N 29°44' W 095°01'0 0.0
2017-Nov-12 04:41N 29°44' W 095°01'0 0.0
2017-Nov-12 04:11N 29°44' W 095°01'0 0.0
2017-Nov-11 07:06N 29°44' W 095°01'1 5.3
2017-Nov-11 06:57N 29°44' W 095°02'3 0.4
2017-Nov-10 22:36N 29°46' W 095°05'1 4.9
2017-Nov-10 22:21N 29°45' W 095°06'2 5.2
2017-Nov-10 21:57N 29°44' W 095°08'3 5.1
2017-Nov-10 21:26N 29°45' W 095°11'2 4.6
2017-Nov-10 20:59N 29°43' W 095°13'0 0.0
2017-Nov-10 08:51N 29°44' W 095°13'0 0.5
2017-Nov-10 08:30N 29°44' W 095°13'2 4.4
2017-Nov-10 08:00N 29°45' W 095°11'2 4.5
2017-Nov-10 07:30N 29°44' W 095°09'2 4.7
2017-Nov-10 07:00N 29°45' W 095°06'1 0.4
2017-Nov-10 04:14N 29°46' W 095°05'  
Track history (hours):
 
Tides and Currents Weather Stations Pressure Air Temp Water Temp Dewpoint Dewpoint Depression Visibility Wind Speed Wind Dir Waves Ship Positions

M/V Lavelle Devall

Owner: LAVELLE DEVALL INC, Sulphur, LA. More information available from US FCC via Universal Licensing System and Coast Guard Vessel Documentation Center.

Last reported at 2017-Nov-19 23:42 UTC. Time now 2017-Nov-22 03:53 UTC.
Position N 29°46' W 095°06'.

Length 18 m.

Type: Towing. MMSI: 366972290.

Date/timePositionNaut miles runAvg speedWind from/ knotsBaromVisibWave heightAir tempDewpointWater temp
2017-Nov-19 23:42N 29°46' W 095°06'1 3.1
2017-Nov-19 23:30N 29°46' W 095°05'3 5.4
2017-Nov-19 22:58N 29°44' W 095°08'3 0.2
2017-Nov-19 06:42N 29°45' W 095°11'1 5.7
2017-Nov-19 06:30N 29°45' W 095°10'3 5.3
2017-Nov-19 06:00N 29°44' W 095°07'2 1.0
2017-Nov-19 04:01N 29°46' W 095°05'0 5.4
2017-Nov-19 04:00N 29°46' W 095°05'3 5.3
2017-Nov-19 03:30N 29°44' W 095°03'3 5.3
2017-Nov-19 03:00N 29°42' W 095°01'3 5.1
2017-Nov-19 02:30N 29°41' W 094°58'2 4.4
2017-Nov-19 02:00N 29°41' W 094°56'2 1.8
2017-Nov-19 01:08N 29°42' W 094°56'1 2.4
2017-Nov-19 00:48N 29°43' W 094°57'2 0.2
2017-Nov-18 13:32N 29°45' W 094°56'0 4.6
2017-Nov-18 13:29N 29°45' W 094°56'2 4.0
2017-Nov-18 13:00N 29°43' W 094°57'1 2.5
2017-Nov-18 12:28N 29°42' W 094°56'0 0.9
2017-Nov-18 12:00N 29°42' W 094°55'2 3.0
2017-Nov-18 11:30N 29°41' W 094°56'2 4.1
2017-Nov-18 11:00N 29°41' W 094°58'1 2.8
2017-Nov-18 10:30N 29°42' W 094°60'3 5.0
2017-Nov-18 09:54N 29°44' W 095°02'4 2.4
2017-Nov-18 08:12N 29°46' W 095°06'2 3.9
2017-Nov-18 07:45N 29°44' W 095°07'4 1.6
2017-Nov-18 05:25N 29°45' W 095°11'3 5.8
2017-Nov-18 04:58N 29°44' W 095°08'2 2.0
2017-Nov-18 04:06N 29°45' W 095°06'2 6.2
2017-Nov-18 03:43N 29°44' W 095°09'2 0.6
2017-Nov-18 00:22N 29°45' W 095°11'2 5.9
2017-Nov-18 00:00N 29°44' W 095°09'4 5.6
2017-Nov-17 23:18N 29°46' W 095°05'2 6.2
2017-Nov-17 23:00N 29°44' W 095°03'2 0.1
2017-Nov-17 03:51N 29°43' W 095°01'4 0.6
2017-Nov-16 20:59N 29°46' W 095°05'0 0.0
2017-Nov-16 01:49N 29°46' W 095°06'1 2.5
2017-Nov-16 01:24N 29°45' W 095°06'1 0.2
2017-Nov-15 20:21N 29°44' W 095°07'2 0.4
2017-Nov-15 15:22N 29°46' W 095°05'0 0.0
2017-Nov-15 04:19N 29°46' W 095°05'2 5.6
2017-Nov-15 04:00N 29°45' W 095°04'2 2.7
2017-Nov-15 03:07N 29°44' W 095°02'1 6.5
2017-Nov-15 03:00N 29°44' W 095°02'3 6.6
2017-Nov-15 02:30N 29°46' W 095°05'0 0.0
2017-Nov-14 08:08N 29°46' W 095°05'1 6.3
2017-Nov-14 08:00N 29°46' W 095°04'3 6.1
2017-Nov-14 07:30N 29°44' W 095°02'0 0.0
2017-Nov-14 01:23N 29°44' W 095°01'4 6.0
2017-Nov-14 00:42N 29°46' W 095°05'1 7.1
2017-Nov-14 00:30N 29°44' W 095°07'3 6.6
2017-Nov-13 23:58N 29°45' W 095°11'3 6.5
2017-Nov-13 23:31N 29°44' W 095°14'2 4.4
2017-Nov-13 23:00N 29°43' W 095°16'0 0.3
2017-Nov-13 22:29N 29°43' W 095°16'3 6.0
2017-Nov-13 22:00N 29°44' W 095°13'7 0.3
2017-Nov-12 22:32N 29°46' W 095°05'0 5.1
2017-Nov-12 22:30N 29°46' W 095°05'3 5.8
2017-Nov-12 22:00N 29°44' W 095°03'1 0.9
2017-Nov-12 20:22N 29°43' W 095°01'0 0.1
2017-Nov-12 18:58N 29°44' W 095°01'0 0.0
2017-Nov-12 15:27N 29°44' W 095°01'0 0.0
2017-Nov-12 04:41N 29°44' W 095°01'0 0.0
2017-Nov-12 04:11N 29°44' W 095°01'0 0.0
2017-Nov-11 07:06N 29°44' W 095°01'1 5.3
2017-Nov-11 06:57N 29°44' W 095°02'3 0.4
2017-Nov-10 22:36N 29°46' W 095°05'1 4.9
2017-Nov-10 22:21N 29°45' W 095°06'2 5.2
2017-Nov-10 21:57N 29°44' W 095°08'3 5.1
2017-Nov-10 21:26N 29°45' W 095°11'2 4.6
2017-Nov-10 20:59N 29°43' W 095°13'0 0.0
2017-Nov-10 08:51N 29°44' W 095°13'0 0.5
2017-Nov-10 08:30N 29°44' W 095°13'2 4.4
2017-Nov-10 08:00N 29°45' W 095°11'2 4.5
2017-Nov-10 07:30N 29°44' W 095°09'2 4.7
2017-Nov-10 07:00N 29°45' W 095°06'1 0.4
2017-Nov-10 04:14N 29°46' W 095°05'  

Dump ship's entire track history